Zabol, Iran
Current Conditions -  °F | °C
As of 12:00 AM on Thursday 18 Dec 2014 (Local Time) from OIZB Reporting Station
Clear Clear  
Wind Chill: 41°   Ceiling: Unl
Heat Index: 45°   Visibility: 6mi
Dew Point: 27°   Wind: 7mph
Humidity: 49%   Direction: 330°NNW
Pressure: 30.12"   Gusts: NA
Location:  31.04°N, 61.5°E
Report Text: OIZB 172100Z 33006KT CAVOK 07/M03 Q1020
Loading
Personal Weather Stations






























Interactive Weather Map New forecast layout! Learn more

10-Day Weather Forecast

Advertisements
Track Severe Weather on mobile